createdAt,value
2022-08-21T00:01:52.697Z,97727.75
2022-08-21T00:04:22.048Z,97718.91
2022-08-21T00:06:51.317Z,97700.75
2022-08-21T00:09:21.603Z,97673.81
2022-08-21T00:11:48.995Z,97675.72
2022-08-21T00:14:18.722Z,97690.28
2022-08-21T00:16:48.066Z,97678.22
2022-08-21T00:19:15.075Z,97687.06
2022-08-21T00:21:44.317Z,97670.84
2022-08-21T00:24:11.765Z,97682.66
2022-08-21T00:26:38.554Z,97692.00
2022-08-21T00:29:05.457Z,97650.72
2022-08-21T00:31:32.162Z,97660.91
2022-08-21T00:34:00.891Z,97694.47
2022-08-21T00:36:29.320Z,97681.56
2022-08-21T00:38:56.395Z,97685.13
2022-08-21T00:41:37.670Z,97704.66
2022-08-21T00:44:07.968Z,97713.72
2022-08-21T00:46:34.958Z,97699.97
2022-08-21T00:49:01.701Z,97701.34
2022-08-21T00:51:38.939Z,97726.09
2022-08-21T00:54:07.085Z,97723.91
2022-08-21T00:56:46.331Z,97694.75
2022-08-21T00:59:13.965Z,97696.69
2022-08-21T01:01:43.726Z,97694.47
2022-08-21T01:04:10.480Z,97703.28
2022-08-21T01:06:37.128Z,97673.84
2022-08-21T01:09:04.257Z,97696.09
2022-08-21T01:11:32.447Z,97672.72
2022-08-21T01:13:59.905Z,97689.47
2022-08-21T01:16:26.629Z,97664.72
2022-08-21T01:18:58.801Z,97695.81
2022-08-21T01:21:30.056Z,97690.00
2022-08-21T01:24:00.502Z,97637.75
2022-08-21T01:26:34.005Z,97644.28
2022-08-21T01:29:11.382Z,97625.34
2022-08-21T01:31:45.760Z,97583.91
2022-08-21T01:34:14.709Z,97612.25
2022-08-21T01:36:41.507Z,97590.03
2022-08-21T01:39:10.797Z,97595.78
2022-08-21T01:41:37.485Z,97582.06
2022-08-21T01:44:05.809Z,97558.41
2022-08-21T01:46:32.846Z,97594.69
2022-08-21T01:48:59.846Z,97571.03
2022-08-21T01:51:26.537Z,97566.66
2022-08-21T01:53:53.208Z,97570.22
2022-08-21T01:56:20.232Z,97566.66
2022-08-21T01:58:48.681Z,97605.63
2022-08-21T02:01:18.608Z,97602.78
2022-08-21T02:03:45.325Z,97600.25
2022-08-21T02:06:19.280Z,97621.91
2022-08-21T02:08:47.188Z,97626.09
2022-08-21T02:11:13.928Z,97601.84
2022-08-21T02:13:41.767Z,97623.25
2022-08-21T02:16:09.423Z,97642.38
2022-08-21T02:18:36.628Z,97615.94
2022-08-21T02:21:07.570Z,97613.38
2022-08-21T02:23:35.762Z,97630.66
2022-08-21T02:26:08.131Z,97663.44
2022-08-21T02:28:35.857Z,97660.94
2022-08-21T02:31:03.803Z,97670.00
2022-08-21T02:33:30.922Z,97658.06
2022-08-21T02:35:59.793Z,97665.53
2022-08-21T02:38:31.006Z,97661.66
2022-08-21T02:41:05.820Z,97660.47
2022-08-21T02:43:32.640Z,97639.03
2022-08-21T02:46:00.132Z,97661.31
2022-08-21T02:48:31.670Z,97658.84
2022-08-21T02:51:00.140Z,97661.53
2022-08-21T02:53:31.353Z,97670.66
2022-08-21T02:56:01.471Z,97670.06
2022-08-21T02:58:33.235Z,97668.69
2022-08-21T03:01:00.569Z,97659.88
2022-08-21T03:03:28.453Z,97681.38
2022-08-21T03:05:56.757Z,97657.56
2022-08-21T03:08:27.842Z,97652.69
2022-08-21T03:10:58.214Z,97665.31
2022-08-21T03:13:24.873Z,97690.28
2022-08-21T03:15:52.993Z,97657.75
2022-08-21T03:18:19.697Z,97693.31
2022-08-21T03:20:47.244Z,97698.50
2022-08-21T03:23:18.992Z,97698.50
2022-08-21T03:25:47.932Z,97684.69
2022-08-21T03:28:19.149Z,97713.88
2022-08-21T03:30:49.780Z,97715.56
2022-08-21T03:33:20.418Z,97703.13
2022-08-21T03:35:56.685Z,97713.56
2022-08-21T03:38:26.491Z,97730.91
2022-08-21T03:40:54.245Z,97734.53
2022-08-21T03:43:21.260Z,97694.50
2022-08-21T03:45:50.557Z,97742.34
2022-08-21T03:48:21.178Z,97752.63
2022-08-21T03:50:50.328Z,97740.25
2022-08-21T03:53:18.033Z,97733.34
2022-08-21T03:55:51.063Z,97752.69
2022-08-21T03:58:20.670Z,97747.53
2022-08-21T04:00:50.623Z,97756.59
2022-08-21T04:03:19.043Z,97751.69
2022-08-21T04:05:46.924Z,97741.22
2022-08-21T04:08:15.817Z,97758.03
2022-08-21T04:10:46.598Z,97726.97
2022-08-21T04:13:13.382Z,97746.25
2022-08-21T04:15:40.242Z,97747.66
2022-08-21T04:18:07.020Z,97712.75
2022-08-21T04:20:34.281Z,97756.56
2022-08-21T04:23:01.590Z,97754.44
2022-08-21T04:25:28.430Z,97726.66
2022-08-21T04:27:55.593Z,97717.03
2022-08-21T04:30:27.956Z,97725.38
2022-08-21T04:32:58.281Z,97746.06
2022-08-21T04:35:27.561Z,97721.63
2022-08-21T04:37:54.401Z,97733.72
2022-08-21T04:40:22.595Z,97753.84
2022-08-21T04:42:55.576Z,97705.44
2022-08-21T04:45:29.057Z,97709.09
2022-08-21T04:47:58.468Z,97740.81
2022-08-21T04:51:04.253Z,97725.41
2022-08-21T04:54:16.763Z,97744.97
2022-08-21T04:56:48.261Z,97727.38
2022-08-21T04:59:19.773Z,97703.22
2022-08-21T05:01:47.778Z,97733.50
2022-08-21T05:04:17.973Z,97717.56
2022-08-21T05:06:48.243Z,97742.31
2022-08-21T05:09:18.251Z,97740.38
2022-08-21T05:11:47.183Z,97748.66
2022-08-21T05:14:14.150Z,97714.28
2022-08-21T05:16:41.727Z,97728.28
2022-08-21T05:19:09.997Z,97753.31
2022-08-21T05:21:42.756Z,97755.81
2022-08-21T05:24:09.556Z,97725.00
2022-08-21T05:26:45.518Z,97757.44
2022-08-21T05:29:16.413Z,97761.81
2022-08-21T05:31:45.666Z,97762.91
2022-08-21T05:34:17.916Z,97769.78
2022-08-21T05:36:48.756Z,97759.59
2022-08-21T05:39:16.076Z,97767.53
2022-08-21T05:41:42.868Z,97761.25
2022-08-21T05:44:10.222Z,97765.44
2022-08-21T05:46:38.591Z,97792.63
2022-08-21T05:49:06.867Z,97789.03
2022-08-21T05:51:33.556Z,97767.59
2022-08-21T05:54:01.385Z,97762.91
2022-08-21T05:56:30.822Z,97762.34
2022-08-21T05:58:57.463Z,97746.91
2022-08-21T06:01:24.151Z,97798.59
2022-08-21T06:03:50.917Z,97755.22
2022-08-21T06:06:19.217Z,97772.81
2022-08-21T06:08:46.534Z,97770.38
2022-08-21T06:11:13.218Z,97790.47
2022-08-21T06:13:40.144Z,97748.09
2022-08-21T06:16:11.317Z,97798.66
2022-08-21T06:18:45.917Z,97787.91
2022-08-21T06:21:12.921Z,97776.06
2022-08-21T06:23:39.949Z,97778.25
2022-08-21T06:26:11.236Z,97776.56
2022-08-21T06:28:38.747Z,97769.72
2022-08-21T06:31:21.123Z,97766.94
2022-08-21T06:33:48.397Z,97753.13
2022-08-21T06:36:15.657Z,97794.03
2022-08-21T06:38:42.455Z,97775.25
2022-08-21T06:41:17.631Z,97771.94
2022-08-21T06:43:44.338Z,97766.44
2022-08-21T06:46:12.009Z,97784.50
2022-08-21T06:48:38.898Z,97762.41
2022-08-21T06:51:06.877Z,97763.59
2022-08-21T06:53:35.482Z,97774.19
2022-08-21T06:56:02.487Z,97768.16
2022-08-21T06:58:30.042Z,97774.22
2022-08-21T07:01:00.779Z,97732.41
2022-08-21T07:03:50.956Z,97790.09
2022-08-21T07:06:18.789Z,97763.97
2022-08-21T07:08:45.566Z,97757.25
2022-08-21T07:11:30.554Z,97770.53
2022-08-21T07:13:57.691Z,97769.06
2022-08-21T07:16:28.534Z,97765.22
2022-08-21T07:18:55.295Z,97745.84
2022-08-21T07:21:25.974Z,97775.34
2022-08-21T07:24:14.298Z,97779.91
2022-08-21T07:26:41.969Z,97771.88
2022-08-21T07:29:11.615Z,97742.03
2022-08-21T07:31:38.978Z,97742.59
2022-08-21T07:34:05.683Z,97729.94
2022-08-21T07:36:33.244Z,97759.00
2022-08-21T07:39:02.285Z,97748.53
2022-08-21T07:41:31.129Z,97745.81
2022-08-21T07:44:01.091Z,97746.50
2022-08-21T07:46:31.323Z,97741.56
2022-08-21T07:49:01.026Z,97724.50
2022-08-21T07:51:30.113Z,97750.63
2022-08-21T07:54:00.254Z,97724.41
2022-08-21T07:56:28.138Z,97733.34
2022-08-21T07:58:54.966Z,97706.97
2022-08-21T08:01:21.755Z,97712.53
2022-08-21T08:03:48.951Z,97705.03
2022-08-21T08:06:22.019Z,97688.72
2022-08-21T08:08:51.578Z,97689.25
2022-08-21T08:11:18.506Z,97676.44
2022-08-21T08:13:50.735Z,97711.50
2022-08-21T08:16:17.974Z,97714.22
2022-08-21T08:18:46.702Z,97713.78
2022-08-21T08:21:14.061Z,97707.06
2022-08-21T08:23:40.912Z,97694.59
2022-08-21T08:26:09.743Z,97710.72
2022-08-21T08:28:36.831Z,97699.16
2022-08-21T08:31:04.937Z,97709.56
2022-08-21T08:33:31.657Z,97705.75
2022-08-21T08:35:58.349Z,97686.38
2022-08-21T08:38:26.093Z,97699.44
2022-08-21T08:41:07.968Z,97698.09
2022-08-21T08:43:35.605Z,97674.50
2022-08-21T08:46:12.966Z,97697.97
2022-08-21T08:49:16.659Z,97699.06
2022-08-21T08:51:53.443Z,97672.03
2022-08-21T08:54:33.563Z,97669.84
2022-08-21T08:57:02.577Z,97677.91
2022-08-21T08:59:45.949Z,97696.72
2022-08-21T09:02:15.705Z,97688.41
2022-08-21T09:04:46.556Z,97677.94
2022-08-21T09:07:43.363Z,97694.28
2022-08-21T09:10:49.778Z,97690.91
2022-08-21T09:13:39.708Z,97690.41
2022-08-21T09:16:53.155Z,97687.63
2022-08-21T09:19:28.348Z,97654.97
2022-08-21T09:22:09.220Z,97675.41
2022-08-21T09:24:52.157Z,97677.69
2022-08-21T09:27:20.578Z,97676.56
2022-08-21T09:29:52.127Z,97661.84
2022-08-21T09:32:36.843Z,97676.22
2022-08-21T09:35:15.733Z,97680.84
2022-08-21T09:37:53.714Z,97681.66
2022-08-21T09:40:36.728Z,97663.25
2022-08-21T09:43:15.965Z,97674.94
2022-08-21T09:45:46.009Z,97638.53
2022-08-21T09:48:27.155Z,97666.13
2022-08-21T09:51:12.920Z,97632.78
2022-08-21T09:53:44.820Z,97657.41
2022-08-21T09:56:55.127Z,97663.84
2022-08-21T09:59:41.231Z,97658.72
2022-08-21T10:02:40.471Z,97661.94
2022-08-21T10:05:17.865Z,97647.56
2022-08-21T10:07:45.065Z,97641.00
2022-08-21T10:10:22.572Z,97650.66
2022-08-21T10:12:58.236Z,97633.63
2022-08-21T10:16:03.340Z,97653.03
2022-08-21T10:18:54.163Z,97657.47
2022-08-21T10:21:23.568Z,97645.59
2022-08-21T10:24:03.217Z,97620.72
2022-08-21T10:26:55.279Z,97649.47
2022-08-21T10:29:49.312Z,97650.16
2022-08-21T10:32:37.728Z,97646.28
2022-08-21T10:35:20.895Z,97600.50
2022-08-21T10:38:46.700Z,97603.72
2022-08-21T10:41:36.826Z,97634.38
2022-08-21T10:44:31.397Z,97609.78
2022-08-21T10:47:27.033Z,97634.50
2022-08-21T10:49:56.688Z,97629.50
2022-08-21T10:52:32.074Z,97629.22
2022-08-21T10:55:06.584Z,97627.34
2022-08-21T10:57:53.321Z,97611.09
2022-08-21T11:00:23.817Z,97626.63
2022-08-21T11:02:59.588Z,97611.50
2022-08-21T11:05:36.350Z,97622.16
2022-08-21T11:08:10.390Z,97578.13
2022-08-21T11:10:57.631Z,97590.72
2022-08-21T11:13:57.281Z,97616.44
2022-08-21T11:16:59.503Z,97613.13
2022-08-21T11:19:31.758Z,97613.13
2022-08-21T11:22:32.469Z,97606.22
2022-08-21T11:25:25.403Z,97608.22
2022-08-21T11:28:09.734Z,97611.56
2022-08-21T11:31:10.165Z,97603.50
2022-08-21T11:34:34.767Z,97576.63
2022-08-21T11:37:04.868Z,97603.75
2022-08-21T11:39:45.513Z,97580.75
2022-08-21T11:42:41.589Z,97597.94
2022-08-21T11:45:15.767Z,97595.91
2022-08-21T11:48:03.249Z,97585.38
2022-08-21T11:50:35.856Z,97586.84
2022-08-21T11:53:08.998Z,97576.97
2022-08-21T11:55:45.900Z,97576.78
2022-08-21T11:58:27.222Z,97553.47
2022-08-21T12:01:22.798Z,97583.50
2022-08-21T12:03:58.350Z,97573.50
2022-08-21T12:06:53.916Z,97586.44
2022-08-21T12:09:26.598Z,97581.00
2022-08-21T12:12:07.915Z,97582.72
2022-08-21T12:15:18.457Z,97571.19
2022-08-21T12:18:04.688Z,97572.09
2022-08-21T12:20:39.685Z,97554.69
2022-08-21T12:23:25.034Z,97540.84
2022-08-21T12:26:14.529Z,97569.38
2022-08-21T12:28:41.649Z,97554.81
2022-08-21T12:31:24.066Z,97571.75
2022-08-21T12:33:55.818Z,97545.50
2022-08-21T12:36:27.032Z,97545.06
2022-08-21T12:39:02.169Z,97572.00
2022-08-21T12:41:36.911Z,97552.69
2022-08-21T12:44:11.422Z,97578.31
2022-08-21T12:46:48.076Z,97566.94
2022-08-21T12:49:38.607Z,97589.19
2022-08-21T12:52:25.156Z,97582.13
2022-08-21T12:54:52.272Z,97584.50
2022-08-21T12:57:25.494Z,97586.00
2022-08-21T13:00:25.044Z,97597.66
2022-08-21T13:02:54.043Z,97575.31
2022-08-21T13:05:38.892Z,97595.53
2022-08-21T13:08:12.271Z,97580.81
2022-08-21T13:10:44.883Z,97586.44
2022-08-21T13:13:25.794Z,97590.19
2022-08-21T13:16:08.642Z,97590.09
2022-08-21T13:18:54.351Z,97580.75
2022-08-21T13:21:22.722Z,97576.56
2022-08-21T13:23:49.391Z,97586.06
2022-08-21T13:26:22.246Z,97587.66
2022-08-21T13:28:51.359Z,97583.38
2022-08-21T13:31:26.075Z,97584.44
2022-08-21T13:33:56.203Z,97556.75
2022-08-21T13:36:30.316Z,97580.66
2022-08-21T13:38:57.630Z,97550.22
2022-08-21T13:41:35.096Z,97548.31
2022-08-21T13:44:06.149Z,97562.97
2022-08-21T13:46:36.669Z,97560.59
2022-08-21T13:49:06.029Z,97549.03
2022-08-21T13:51:35.626Z,97528.66
2022-08-21T13:54:03.090Z,97523.19
2022-08-21T13:56:49.278Z,97512.94
2022-08-21T13:59:45.473Z,97531.50
2022-08-21T14:02:14.853Z,97494.59
2022-08-21T14:04:55.808Z,97530.28
2022-08-21T14:07:31.104Z,97498.88
2022-08-21T14:10:02.994Z,97516.47
2022-08-21T14:12:41.330Z,97512.69
2022-08-21T14:15:10.062Z,97497.69
2022-08-21T14:17:39.649Z,97513.13
2022-08-21T14:20:08.838Z,97512.59
2022-08-21T14:22:49.434Z,97483.66
2022-08-21T14:25:44.945Z,97519.22
2022-08-21T14:28:28.212Z,97521.34
2022-08-21T14:30:57.623Z,97508.78
2022-08-21T14:33:32.396Z,97498.22
2022-08-21T14:36:00.229Z,97494.59
2022-08-21T14:38:28.621Z,97517.53
2022-08-21T14:41:05.490Z,97509.22
2022-08-21T14:43:32.778Z,97486.34
2022-08-21T14:46:02.387Z,97461.84
2022-08-21T14:48:29.057Z,97490.97
2022-08-21T14:51:00.190Z,97481.34
2022-08-21T14:53:27.479Z,97481.75
2022-08-21T14:56:13.518Z,97499.34
2022-08-21T14:58:47.921Z,97496.38
2022-08-21T15:01:16.695Z,97491.44
2022-08-21T15:03:44.581Z,97500.47
2022-08-21T15:06:11.702Z,97497.59
2022-08-21T15:08:39.861Z,97478.00
2022-08-21T15:11:13.092Z,97499.44
2022-08-21T15:13:43.630Z,97472.56
2022-08-21T15:16:12.574Z,97484.31
2022-08-21T15:18:42.400Z,97480.44
2022-08-21T15:21:09.717Z,97481.88
2022-08-21T15:23:39.829Z,97452.97
2022-08-21T15:26:10.464Z,97460.59
2022-08-21T15:28:40.677Z,97489.47
2022-08-21T15:31:12.393Z,97484.22
2022-08-21T15:33:39.445Z,97459.19
2022-08-21T15:36:06.494Z,97434.00
2022-08-21T15:38:33.170Z,97448.75
2022-08-21T15:40:59.858Z,97444.06
2022-08-21T15:43:33.709Z,97469.69
2022-08-21T15:46:01.518Z,97446.00
2022-08-21T15:48:30.731Z,97464.06
2022-08-21T15:50:57.370Z,97455.66
2022-08-21T15:53:25.115Z,97436.06
2022-08-21T15:55:51.924Z,97468.28
2022-08-21T15:58:20.982Z,97448.91
2022-08-21T16:00:48.227Z,97444.41
2022-08-21T16:03:17.812Z,97443.69
2022-08-21T16:05:52.772Z,97482.84
2022-08-21T16:08:20.832Z,97437.66
2022-08-21T16:10:47.847Z,97464.06
2022-08-21T16:13:25.820Z,97455.16
2022-08-21T16:15:52.683Z,97465.44
2022-08-21T16:18:20.385Z,97472.63
2022-08-21T16:20:47.417Z,97442.13
2022-08-21T16:23:17.206Z,97463.31
2022-08-21T16:25:45.153Z,97470.75
2022-08-21T16:28:16.956Z,97480.47
2022-08-21T16:30:46.963Z,97479.22
2022-08-21T16:33:21.077Z,97475.91
2022-08-21T16:35:48.251Z,97479.31
2022-08-21T16:38:15.519Z,97464.13
2022-08-21T16:40:42.272Z,97456.00
2022-08-21T16:43:09.158Z,97477.13
2022-08-21T16:45:50.000Z,97475.19
2022-08-21T16:48:16.829Z,97453.03
2022-08-21T16:50:47.895Z,97458.56
2022-08-21T16:53:20.630Z,97462.88
2022-08-21T16:55:48.683Z,97426.78
2022-08-21T16:58:25.928Z,97455.38
2022-08-21T17:00:52.879Z,97463.66
2022-08-21T17:03:34.111Z,97468.00
2022-08-21T17:06:02.422Z,97429.91
2022-08-21T17:08:29.057Z,97440.38
2022-08-21T17:10:56.075Z,97472.38
2022-08-21T17:13:23.118Z,97455.59
2022-08-21T17:15:49.887Z,97457.28
2022-08-21T17:18:23.663Z,97440.41
2022-08-21T17:20:52.098Z,97451.88
2022-08-21T17:23:19.903Z,97473.75
2022-08-21T17:25:54.950Z,97476.66
2022-08-21T17:28:28.208Z,97465.97
2022-08-21T17:30:57.663Z,97470.25
2022-08-21T17:33:31.559Z,97489.53
2022-08-21T17:36:00.306Z,97461.78
2022-08-21T17:38:27.931Z,97476.41
2022-08-21T17:40:54.725Z,97503.88
2022-08-21T17:43:21.575Z,97504.75
2022-08-21T17:45:48.312Z,97471.69
2022-08-21T17:48:15.013Z,97494.16
2022-08-21T17:50:42.263Z,97509.16
2022-08-21T17:53:12.262Z,97500.28
2022-08-21T17:55:38.979Z,97503.78
2022-08-21T17:58:08.651Z,97498.72
2022-08-21T18:00:36.513Z,97498.28
2022-08-21T18:03:09.179Z,97518.06
2022-08-21T18:05:39.475Z,97495.16
2022-08-21T18:08:06.106Z,97499.53
2022-08-21T18:10:33.008Z,97494.59
2022-08-21T18:13:05.496Z,97492.44
2022-08-21T18:15:38.834Z,97499.84
2022-08-21T18:18:06.316Z,97508.94
2022-08-21T18:20:33.055Z,97499.97
2022-08-21T18:23:00.527Z,97510.34
2022-08-21T18:25:28.850Z,97500.25
2022-08-21T18:27:58.348Z,97519.00
2022-08-21T18:30:26.346Z,97494.84
2022-08-21T18:32:55.494Z,97496.56
2022-08-21T18:35:23.202Z,97491.47
2022-08-21T18:37:51.148Z,97494.19
2022-08-21T18:40:21.683Z,97510.13
2022-08-21T18:42:55.761Z,97482.28
2022-08-21T18:45:24.828Z,97511.38
2022-08-21T18:47:53.597Z,97521.13
2022-08-21T18:50:26.977Z,97525.59
2022-08-21T18:52:54.350Z,97495.47
2022-08-21T18:55:25.017Z,97499.88
2022-08-21T18:57:53.031Z,97504.59
2022-08-21T19:00:26.220Z,97519.84
2022-08-21T19:02:53.916Z,97502.56
2022-08-21T19:05:23.348Z,97498.47
2022-08-21T19:10:50.804Z,97529.34
2022-08-21T19:13:20.480Z,97518.59
2022-08-21T19:15:53.041Z,97516.72
2022-08-21T19:18:28.313Z,97527.50
2022-08-21T19:20:57.332Z,97501.50
2022-08-21T19:23:28.994Z,97531.94
2022-08-21T19:26:00.798Z,97517.59
2022-08-21T19:28:44.913Z,97528.56
2022-08-21T19:31:30.259Z,97512.63
2022-08-21T19:34:08.961Z,97500.84
2022-08-21T19:36:35.972Z,97493.19
2022-08-21T19:39:08.319Z,97481.97
2022-08-21T19:41:38.912Z,97510.72
2022-08-21T19:44:11.124Z,97521.22
2022-08-21T19:46:44.544Z,97524.47
2022-08-21T19:49:16.741Z,97525.59
2022-08-21T19:51:46.729Z,97510.31
2022-08-21T19:54:33.298Z,97527.88
2022-08-21T19:57:06.808Z,97521.59
2022-08-21T19:59:35.842Z,97500.59
2022-08-21T20:02:07.542Z,97531.06
2022-08-21T20:04:34.212Z,97522.28
2022-08-21T20:07:01.839Z,97539.38
2022-08-21T20:09:35.186Z,97522.94
2022-08-21T20:12:10.279Z,97511.19
2022-08-21T20:14:43.103Z,97538.94
2022-08-21T20:17:12.526Z,97533.41
2022-08-21T20:19:44.649Z,97529.81
2022-08-21T20:22:13.097Z,97515.06
2022-08-21T20:24:42.677Z,97537.88
2022-08-21T20:27:16.544Z,97516.78
2022-08-21T20:29:46.374Z,97520.38
2022-08-21T20:32:17.281Z,97547.56
2022-08-21T20:34:45.269Z,97528.34
2022-08-21T20:37:22.303Z,97538.53
2022-08-21T20:40:07.984Z,97518.59
2022-08-21T20:42:35.847Z,97538.03
2022-08-21T20:45:08.233Z,97536.66
2022-08-21T20:47:36.308Z,97535.91
2022-08-21T20:50:19.678Z,97551.16
2022-08-21T20:52:50.572Z,97543.38
2022-08-21T20:55:29.336Z,97551.53
2022-08-21T20:58:12.855Z,97538.13
2022-08-21T21:00:47.085Z,97558.13
2022-08-21T21:03:46.053Z,97556.28
2022-08-21T21:06:26.302Z,97554.31
2022-08-21T21:08:59.849Z,97558.44
2022-08-21T21:11:55.496Z,97537.41
2022-08-21T21:14:30.288Z,97567.34
2022-08-21T21:17:01.610Z,97540.69
2022-08-21T21:19:44.590Z,97565.13
2022-08-21T21:22:16.068Z,97571.94
2022-08-21T21:24:45.759Z,97568.06
2022-08-21T21:27:22.787Z,97570.06
2022-08-21T21:30:05.850Z,97555.03
2022-08-21T21:32:39.558Z,97570.38
2022-08-21T21:35:08.449Z,97540.78
2022-08-21T21:38:10.080Z,97553.72
2022-08-21T21:41:24.922Z,97574.84
2022-08-21T21:44:00.966Z,97579.53
2022-08-21T21:47:00.178Z,97572.38
2022-08-21T21:49:30.295Z,97573.50
2022-08-21T21:52:15.570Z,97576.75
2022-08-21T21:55:05.622Z,97581.75
2022-08-21T21:57:50.674Z,97585.13
2022-08-21T22:00:26.421Z,97557.72
2022-08-21T22:02:59.404Z,97582.91
2022-08-21T22:05:45.593Z,97575.75
2022-08-21T22:08:48.785Z,97570.25
2022-08-21T22:11:24.279Z,97566.34
2022-08-21T22:14:04.020Z,97553.19
2022-08-21T22:16:33.400Z,97539.25
2022-08-21T22:19:08.374Z,97563.44
2022-08-21T22:21:46.987Z,97551.66
2022-08-21T22:24:35.420Z,97538.19
2022-08-21T22:27:09.261Z,97565.38
2022-08-21T22:29:56.651Z,97554.03
2022-08-21T22:32:37.676Z,97556.84
2022-08-21T22:35:13.219Z,97555.78
2022-08-21T22:37:44.896Z,97548.84
2022-08-21T22:40:21.628Z,97554.38
2022-08-21T22:43:02.556Z,97556.09
2022-08-21T22:45:32.335Z,97540.75
2022-08-21T22:48:11.274Z,97533.66
2022-08-21T22:51:02.833Z,97565.72
2022-08-21T22:53:33.525Z,97561.34
2022-08-21T22:56:05.118Z,97554.50
2022-08-21T22:58:36.734Z,97553.34
2022-08-21T23:01:27.084Z,97566.88
2022-08-21T23:03:59.293Z,97556.94
2022-08-21T23:06:32.100Z,97558.94
2022-08-21T23:09:00.406Z,97534.16
2022-08-21T23:11:51.496Z,97551.78
2022-08-21T23:14:18.498Z,97527.63
2022-08-21T23:17:05.173Z,97558.97
2022-08-21T23:19:51.354Z,97554.19
2022-08-21T23:22:55.411Z,97530.84
2022-08-21T23:25:37.489Z,97555.00
2022-08-21T23:28:20.119Z,97561.09
2022-08-21T23:31:25.500Z,97558.94
2022-08-21T23:34:30.620Z,97561.97
2022-08-21T23:40:56.335Z,97569.91
2022-08-21T23:44:06.806Z,97565.22
2022-08-21T23:47:01.286Z,97575.38
2022-08-21T23:49:49.521Z,97563.66
2022-08-21T23:52:34.009Z,97578.22
2022-08-21T23:55:21.259Z,97559.53
2022-08-21T23:58:24.826Z,97555.38
